Flughafen Wetterinformationen

LTBA 011150Z 36013KT 9999 -RA SCT012 BKN032 06/04 Q1020 NOSIG RMK RWY23 35014KT

VATSIM Feed

Card image cap

ATC Buchungen

Es wurde keine Position gebucht

Card image cap

Aktive Flugsicherung

Luftraum Name Rating Frequenz
LTAA_CTR Efe Mertoglu C1 128.750
LTAC_ATIS Efe Mertoglu C1 123.600

Blog

Read our latest news and get to know us better.